This is the latest recevied weather packets stored in our database for station/object IS0HYQ-12. If no packets are shown the sender has not sent any weather packets the latest 10 day(s).
| Time | Temp. | Humidity | Pressure | Rain* | Wind** | Luminosity | Snow |
|---|---|---|---|---|---|---|---|
| 1777369070 | 27.22° C | 46% | 1014.2 hPa | - | - | - | - |
| 1777368170 | 27.22° C | 45% | 1014.3 hPa | - | - | - | - |
| 1777367269 | 27.78° C | 43% | 1014.3 hPa | - | - | - | - |
| 1777365469 | 26.11° C | 47% | 1014.2 hPa | - | - | - | - |
| 1777364569 | 19.44° C | 96% | 1014.2 hPa | - | - | - | - |
| 1777363668 | 18.89° C | 99% | 1014.3 hPa | - | - | - | - |
| 1777362768 | 18.89° C | 99% | 1014.3 hPa | - | - | - | - |
| 1777361873 | 18.33° C | 99% | 1014.4 hPa | - | - | - | - |
| 1777360068 | 17.78° C | 99% | 1014.3 hPa | - | - | - | - |
| 1777358267 | 16.67° C | 99% | 1014.4 hPa | - | - | - | - |
| 1777357367 | 16.11° C | 99% | 1014.5 hPa | - | - | - | - |
| 1777356467 | 15° C | 99% | 1014.4 hPa | - | - | - | - |
| 1777354666 | 14.44° C | 99% | 1014.3 hPa | - | - | - | - |
| 1777353766 | 13.89° C | 99% | 1014.3 hPa | - | - | - | - |
| 1777352866 | 13.89° C | 99% | 1014.3 hPa | - | - | - | - |
| 1777351965 | 13.33° C | 99% | 1014.1 hPa | - | - | - | - |
| 1777351065 | 13.89° C | 99% | 1014.2 hPa | - | - | - | - |
| 1777350165 | 13.89° C | 99% | 1014.2 hPa | - | - | - | - |
| 1777349265 | 13.89° C | 99% | 1014.4 hPa | - | - | - | - |
| 1777348364 | 13.89° C | 99% | 1014.4 hPa | - | - | - | - |
| 1777347477 | 14.44° C | 97% | 1014.4 hPa | - | - | - | - |
| 1777346577 | 15° C | 95% | 1014.6 hPa | - | - | - | - |
| 1777345664 | 15.56° C | 95% | 1014.6 hPa | - | - | - | - |
| 1777344764 | 15.56° C | 99% | 1014.8 hPa | - | - | - | - |
| 1777343864 | 15° C | 99% | 1014.9 hPa | - | - | - | - |
* Rain since midnight (hover to see other rain measurements)
** Current wind speed in m/s (hover to see current wind gust speed)